Time;durP1;ratioP1;P1;durP2;ratioP2;P2;SDS_P1;SDS_P2;PMS_P1;PMS_P2;Temp;Humidity;BMP_temperature;BMP_pressure;BME280_temperature;BME280_humidity;BME280_pressure;Samples;Min_cycle;Max_cycle;Signal;HPM_P1;HPM_P2
2024/01/21 00:00:04;;;;;;;41.50;13.00;;;;;;;4.94;74.34;100130.60;67631;1280;1016137;-64
2024/01/21 00:03:07;;;;;;;37.50;11.90;;;;;;;5.02;74.15;100126.98;67543;1280;1016223;-68
2024/01/21 00:06:10;;;;;;;37.60;12.30;;;;;;;5.04;74.22;100133.38;67649;1281;1016473;-70
2024/01/21 00:09:12;;;;;;;37.20;11.40;;;;;;;5.02;74.36;100138.09;67598;1280;1016408;-70
2024/01/21 00:12:15;;;;;;;;;;;;;;;4.91;75.09;100144.00;67588;1281;1016320;-70
2024/01/21 00:15:18;;;;;;;35.60;11.30;;;;;;;4.88;75.02;100146.14;67639;1280;1016428;-70
2024/01/21 00:18:20;;;;;;;;;;;;;;;4.98;74.99;100146.66;67594;1280;1016523;-70
2024/01/21 00:21:23;;;;;;;31.80;11.50;;;;;;;4.93;75.32;100148.48;67562;1280;1016423;-70
2024/01/21 00:24:26;;;;;;;;;;;;;;;5.21;73.69;100151.80;67658;1280;1016469;-70
2024/01/21 00:27:28;;;;;;;29.40;8.70;;;;;;;5.18;74.13;100145.61;67619;1280;1016394;-70
2024/01/21 00:30:31;;;;;;;;;;;;;;;5.33;72.78;100152.10;67577;1280;1016503;-70
2024/01/21 00:33:34;;;;;;;36.20;11.20;;;;;;;4.89;75.59;100152.17;67636;1280;1016508;-70
2024/01/21 00:36:37;;;;;;;34.00;11.90;;;;;;;4.73;77.33;100158.33;67605;1280;1016979;-70
2024/01/21 00:39:39;;;;;;;31.50;11.00;;;;;;;4.78;77.34;100162.07;67567;1280;1016440;-70
2024/01/21 00:42:42;;;;;;;31.50;11.70;;;;;;;4.79;77.41;100162.06;67602;1280;1016292;-70
2024/01/21 00:45:45;;;;;;;;;;;;;;;4.81;77.64;100169.13;67634;1280;1017565;-69
2024/01/21 00:48:47;;;;;;;35.20;11.20;;;;;;;4.92;77.03;100168.42;67580;1280;1016481;-70
2024/01/21 00:51:50;;;;;;;;;;;;;;;5.10;75.87;100169.86;67621;1280;1016432;-70
2024/01/21 00:54:53;;;;;;;33.30;10.00;;;;;;;4.92;76.91;100173.10;67590;1280;1017183;-70
2024/01/21 00:57:56;;;;;;;30.10;10.50;;;;;;;4.89;77.28;100177.65;67566;1280;1016319;-61
2024/01/21 01:00:59;;;;;;;30.40;10.70;;;;;;;4.86;77.46;100181.86;67630;1280;1016304;-70
2024/01/21 01:04:02;;;;;;;34.60;10.80;;;;;;;4.85;77.54;100181.02;67587;1280;1016652;-70
2024/01/21 01:07:05;;;;;;;35.70;10.50;;;;;;;4.65;78.91;100187.05;67601;1280;1016442;-65
2024/01/21 01:10:07;;;;;;;;;;;;;;;4.58;79.82;100191.82;67587;1280;1015940;-70
2024/01/21 01:13:10;;;;;;;36.40;10.80;;;;;;;4.64;79.65;100195.89;67601;1280;1016312;-70
2024/01/21 01:16:13;;;;;;;;;;;;;;;4.80;78.65;100194.27;67621;1280;1016845;-70
2024/01/21 01:19:15;;;;;;;35.20;12.00;;;;;;;4.86;77.93;100189.66;67602;1280;1016347;-69
2024/01/21 01:22:18;;;;;;;;;;;;;;;4.81;78.20;100195.45;67593;1281;1016868;-70
2024/01/21 01:25:21;;;;;;;34.40;11.10;;;;;;;4.74;78.85;100193.48;67613;1280;1016683;-66
2024/01/21 01:28:24;;;;;;;33.70;11.50;;;;;;;4.71;79.37;100195.45;67562;1280;1015785;-70
2024/01/21 01:31:26;;;;;;;36.10;12.40;;;;;;;4.67;79.80;100194.28;67571;1280;1016418;-69
2024/01/21 01:34:29;;;;;;;;;;;;;;;4.68;79.99;100196.34;67634;1280;1016202;-70
2024/01/21 01:37:32;;;;;;;34.10;12.00;;;;;;;4.75;79.26;100195.73;67588;1280;1016388;-67
2024/01/21 01:40:34;;;;;;;;;;;;;;;4.82;78.77;100195.61;67579;1280;1016301;-68
2024/01/21 01:43:37;;;;;;;36.50;11.40;;;;;;;4.81;78.95;100205.69;67635;1280;1016836;-69
2024/01/21 01:46:40;;;;;;;32.00;10.20;;;;;;;4.90;78.50;100210.92;67632;1280;1016412;-68
2024/01/21 01:49:43;;;;;;;;;;;;;;;4.87;78.74;100216.88;67558;1280;1016375;-69
2024/01/21 01:52:45;;;;;;;;;;;;;;;4.95;78.33;100224.55;67641;1280;1016331;-68
2024/01/21 01:55:48;;;;;;;35.00;11.40;;;;;;;5.09;76.98;100218.61;67579;1280;1016398;-70
2024/01/21 01:58:51;;;;;;;;;;;;;;;5.09;77.18;100224.67;67574;1280;1016460;-70
2024/01/21 02:01:53;;;;;;;34.80;12.70;;;;;;;5.13;76.53;100228.58;67605;1280;1016129;-70
2024/01/21 02:04:56;;;;;;;;;;;;;;;5.20;75.70;100234.73;67619;1280;1016508;-70
2024/01/21 02:07:59;;;;;;;35.60;11.60;;;;;;;5.08;76.44;100227.80;67588;1280;1016525;-71
2024/01/21 02:11:01;;;;;;;37.00;13.20;;;;;;;5.05;76.92;100234.09;67637;1280;1016717;-70
2024/01/21 02:14:04;;;;;;;;;;;;;;;5.18;75.83;100232.50;67614;1280;1017664;-70
2024/01/21 02:17:07;;;;;;;37.40;11.90;;;;;;;5.33;74.92;100233.83;67572;1280;1016440;-70
2024/01/21 02:20:10;;;;;;;;;;;;;;;5.27;75.34;100237.21;67668;1280;1015783;-70
2024/01/21 02:23:12;;;;;;;;;;;;;;;5.15;76.27;100246.25;67603;1280;1016841;-70
2024/01/21 02:26:15;;;;;;;37.50;11.80;;;;;;;5.17;76.22;100251.24;67605;1280;1016856;-69
2024/01/21 02:29:18;;;;;;;;;;;;;;;5.09;76.71;100254.51;67621;1281;1016182;-66
2024/01/21 02:32:20;;;;;;;35.20;12.40;;;;;;;4.97;77.52;100253.64;67626;1280;1016422;-70
2024/01/21 02:35:23;;;;;;;;;;;;;;;5.10;76.44;100258.98;67610;1280;1016505;-70
2024/01/21 02:38:26;;;;;;;38.10;12.20;;;;;;;5.14;76.00;100264.48;67645;1280;1016186;-67
2024/01/21 02:41:28;;;;;;;;;;;;;;;5.07;76.54;100270.81;67580;1280;1018476;-70
2024/01/21 02:44:31;;;;;;;32.70;11.00;;;;;;;5.08;76.74;100272.03;67589;1280;1016413;-70
2024/01/21 02:47:34;;;;;;;;;;;;;;;5.21;75.84;100271.65;67596;1280;1016449;-70
2024/01/21 02:50:36;;;;;;;34.10;11.10;;;;;;;5.28;75.43;100273.61;67627;1280;1016574;-69
2024/01/21 02:53:39;;;;;;;;;;;;;;;5.14;76.21;100271.23;67579;1280;1016319;-71
2024/01/21 02:56:42;;;;;;;36.50;12.20;;;;;;;5.16;76.57;100274.48;67639;1280;1017049;-70
2024/01/21 02:59:44;;;;;;;;;;;;;;;5.04;78.12;100275.21;67615;1280;1016432;-70
2024/01/21 03:02:48;;;;;;;35.10;12.50;;;;;;;4.97;79.30;100274.42;67576;1280;1016306;-69
2024/01/21 03:05:50;;;;;;;39.30;13.70;;;;;;;4.88;80.10;100277.88;67607;1281;1016301;-70
2024/01/21 03:08:53;;;;;;;;;;;;;;;4.95;79.89;100279.16;67604;1280;1016480;-70
2024/01/21 03:11:56;;;;;;;;;;;;;;;4.86;80.97;100279.46;67623;1280;1016440;-66
2024/01/21 03:14:59;;;;;;;;;;;;;;;5.01;80.05;100276.98;67580;1280;1016439;-70
2024/01/21 03:18:01;;;;;;;;;;;;;;;4.96;80.67;100282.09;67609;1280;1016368;-63
2024/01/21 03:21:04;;;;;;;;;;;;;;;5.05;80.86;100285.42;67624;1280;1016313;-68
2024/01/21 03:24:07;;;;;;;;;;;;;;;5.05;81.12;100289.23;67639;1280;1015988;-70
2024/01/21 03:27:09;;;;;;;;;;;;;;;5.17;81.06;100298.06;67596;1281;1016498;-70
2024/01/21 03:30:12;;;;;;;;;;;;;;;5.21;81.65;100302.34;67638;1280;1019614;-70
2024/01/21 03:33:15;;;;;;;;;;;;;;;5.03;83.30;100306.95;67630;1280;1016501;-70
2024/01/21 03:36:17;;;;;;;;;;;;;;;5.12;83.31;100305.80;67609;1280;1016098;-70
2024/01/21 03:39:29;;;;;;;;;;;;;;;5.13;83.59;100308.71;65428;1280;5359678;-70
2024/01/21 03:42:32;;;;;;;;;;;;;;;4.97;85.06;100304.09;67614;1280;1016281;-69
2024/01/21 03:45:34;;;;;;;;;;;;;;;5.19;83.44;100305.49;67623;1280;1016427;-62
2024/01/21 03:48:37;;;;;;;;;;;;;;;5.37;82.37;100305.39;67617;1280;1016420;-68
2024/01/21 03:51:40;;;;;;;;;;;;;;;5.51;81.60;100310.89;67573;1280;1018111;-70
2024/01/21 03:54:42;;;;;;;;;;;;;;;5.39;82.03;100312.63;67652;1281;1016901;-68
2024/01/21 03:57:45;;;;;;;;;;;;;;;5.26;83.70;100313.19;67625;1280;1016483;-70
2024/01/21 04:00:48;;;;;;;;;;;;;;;5.54;82.11;100311.36;67584;1280;1016507;-60
2024/01/21 04:03:51;;;;;;;;;;;;;;;5.56;82.01;100311.86;67636;1280;1016353;-70
2024/01/21 04:06:53;;;;;;;;;;;;;;;5.42;83.01;100312.94;67589;1280;1015831;-69
2024/01/21 04:09:56;;;;;;;;;;;;;;;5.34;83.87;100316.19;67603;1280;1016157;-66
2024/01/21 04:12:59;;;;;;;;;;;;;;;5.49;82.78;100320.45;67626;1280;1016262;-70
2024/01/21 04:16:02;;;;;;;;;;;;;;;5.63;81.74;100323.88;67651;1281;1016372;-70
2024/01/21 04:19:04;;;;;;;;;;;;;;;5.76;80.54;100327.67;67608;1280;1016422;-70
2024/01/21 04:22:07;;;;;;;;;;;;;;;5.64;81.24;100322.46;67607;1280;1016420;-59
2024/01/21 04:25:10;;;;;;;;;;;;;;;5.75;80.51;100325.41;67608;1280;1016367;-70
2024/01/21 04:28:13;;;;;;;;;;;;;;;5.65;80.56;100326.45;67642;1280;1016565;-70
2024/01/21 04:31:15;;;;;;;;;;;;;;;5.59;80.77;100331.92;67661;1280;1017400;-70
2024/01/21 04:34:18;;;;;;;;;;;;;;;5.73;80.74;100332.40;67633;1281;1016423;-60
2024/01/21 04:37:21;;;;;;;;;;;;;;;5.86;79.97;100341.02;67658;1280;1016926;-69
2024/01/21 04:40:23;;;;;;;;;;;;;;;5.67;80.45;100345.16;67634;1280;1016388;-69
2024/01/21 04:43:26;;;;;;;;;;;;;;;5.85;79.36;100344.35;67626;1280;1016464;-64
2024/01/21 04:46:29;;;;;;;;;;;;;;;5.88;78.57;100346.19;67664;1280;1016245;-69
2024/01/21 04:49:31;;;;;;;;;;;;;;;5.80;78.90;100345.64;67656;1280;1016442;-69
2024/01/21 04:52:34;;;;;;;;;;;;;;;5.59;79.22;100348.05;67604;1280;1016478;-71
2024/01/21 04:55:37;;;;;;;;;;;;;;;5.63;79.39;100347.48;67647;1280;1016230;-70
2024/01/21 04:58:39;;;;;;;;;;;;;;;5.47;79.91;100345.82;67660;1280;1015994;-69
2024/01/21 05:01:42;;;;;;;;;;;;;;;5.40;80.51;100343.85;67641;1281;1016440;-70
2024/01/21 05:04:45;;;;;;;;;;;;;;;5.73;78.63;100347.14;67657;1280;1016496;-70
2024/01/21 05:07:48;;;;;;;;;;;;;;;5.93;76.23;100346.64;67662;1280;1016542;-70
2024/01/21 05:10:50;;;;;;;;;;;;;;;5.61;77.65;100352.22;67574;1280;1016408;-69
2024/01/21 05:13:53;;;;;;;;;;;;;;;5.67;77.25;100352.80;67637;1280;1016059;-70
2024/01/21 05:16:56;;;;;;;;;;;;;;;5.64;76.77;100357.36;67658;1280;1016433;-70
2024/01/21 05:19:59;;;;;;;;;;;;;;;5.69;76.08;100359.89;67612;1280;1019240;-69
2024/01/21 05:23:01;;;;;;;;;;;;;;;5.63;76.87;100354.42;67658;1280;1016016;-70
2024/01/21 05:26:04;;;;;;;;;;;;;;;5.62;76.88;100357.39;67611;1280;1016127;-66
2024/01/21 05:29:07;;;;;;;;;;;;;;;5.53;77.24;100359.10;67619;1280;1016533;-67
2024/01/21 05:32:09;;;;;;;;;;;;;;;5.55;77.15;100358.88;67648;1281;1016840;-69
2024/01/21 05:35:12;;;;;;;;;;;;;;;5.51;77.93;100355.14;67649;1280;1016493;-70
2024/01/21 05:38:15;;;;;;;;;;;;;;;5.64;77.15;100350.59;67621;1280;1016359;-70
2024/01/21 05:41:18;;;;;;;;;;;;;;;5.57;77.83;100351.55;67661;1281;1016720;-60
2024/01/21 05:44:20;;;;;;;;;;;;;;;5.56;77.77;100346.38;67627;1280;1016199;-69
2024/01/21 05:47:23;;;;;;;;;;;;;;;5.87;75.53;100351.25;67624;1280;1016407;-67
2024/01/21 05:50:26;;;;;;;;;;;;;;;5.88;74.71;100353.49;67647;1280;1016440;-70
2024/01/21 05:53:28;;;;;;;;;;;;;;;5.55;76.44;100356.27;67655;1280;1015652;-70
2024/01/21 05:56:31;;;;;;;;;;;;;;;5.34;77.66;100363.02;67601;1280;1017275;-65
2024/01/21 05:59:34;;;;;;;;;;;;;;;5.43;77.49;100363.23;67649;1280;1016502;-61
2024/01/21 06:02:36;;;;;;;;;;;;;;;5.64;76.12;100364.13;67661;1280;1016211;-61
2024/01/21 06:05:39;;;;;;;;;;;;;;;5.60;76.46;100362.98;67612;1280;1016465;-70
2024/01/21 06:08:42;;;;;;;;;;;;;;;5.73;76.63;100363.45;67654;1280;1016443;-70
2024/01/21 06:11:45;;;;;;;;;;;;;;;5.67;77.01;100361.64;67646;1280;1016390;-69
2024/01/21 06:14:48;;;;;;;;;;;;;;;5.64;77.59;100360.48;67577;1280;1016513;-69
2024/01/21 06:17:50;;;;;;;;;;;;;;;5.76;77.23;100363.41;67668;1280;1016238;-69
2024/01/21 06:20:53;;;;;;;;;;;;;;;5.81;77.15;100365.41;67653;1280;1016292;-69
2024/01/21 06:23:56;;;;;;;;;;;;;;;6.12;76.21;100362.30;67621;1280;1016482;-70
2024/01/21 06:26:58;;;;;;;;;;;;;;;6.32;75.09;100369.77;67680;1280;1016280;-68
2024/01/21 06:30:01;;;;;;;;;;;;;;;6.48;74.33;100370.32;67590;1280;1016704;-69
2024/01/21 06:33:05;;;;;;;;;;;;;;;6.48;73.74;100369.97;67621;1280;1016437;-70
2024/01/21 06:36:08;;;;;;;;;;;;;;;6.50;74.12;100367.48;67624;1280;1016428;-66
2024/01/21 06:39:10;;;;;;;;;;;;;;;6.45;74.50;100361.86;67655;1280;1016415;-63
2024/01/21 06:42:13;;;;;;;;;;;;;;;6.62;73.48;100363.27;67649;1280;1016436;-60
2024/01/21 06:45:16;;;;;;;;;;;;;;;6.51;74.65;100363.30;67636;1280;1016333;-70
2024/01/21 06:48:18;;;;;;;;;;;;;;;6.76;74.14;100361.41;67655;1280;1016304;-69
2024/01/21 06:51:31;;;;;;;;;;;;;;;6.92;73.11;100361.42;67684;1280;1016341;-70
2024/01/21 06:54:34;;;;;;;;;;;;;;;7.06;72.15;100358.52;67627;1280;1016478;-70
2024/01/21 06:57:39;;;;;;;;;;;;;;;7.03;72.55;100357.38;67653;1280;1016604;-70
2024/01/21 07:00:42;;;;;;;;;;;;;;;7.09;71.75;100361.59;67591;1280;1016374;-70
2024/01/21 07:03:45;;;;;;;;;;;;;;;6.88;71.96;100365.33;67664;1280;1016344;-70
2024/01/21 07:06:48;;;;;;;;;;;;;;;6.73;73.35;100373.66;67615;1280;1016320;-68
2024/01/21 07:09:50;;;;;;;;;;;;;;;6.75;73.35;100377.77;67633;1280;1016205;-62
2024/01/21 07:12:55;;;;;;;;;;;;;;;6.62;73.74;100381.00;67609;1280;1016541;-66
2024/01/21 07:15:58;;;;;;;;;;;;;;;6.50;74.28;100389.73;67612;1280;1016478;-68
2024/01/21 07:19:00;;;;;;;;;;;;;;;6.69;73.77;100394.77;67624;1280;1016423;-69
2024/01/21 07:22:03;;;;;;;;;;;;;;;6.73;73.47;100398.16;67666;1280;1015932;-66
2024/01/21 07:25:06;;;;;;;;;;;;;;;6.70;73.31;100396.30;67606;1280;1016493;-70
2024/01/21 07:28:09;;;;;;;;;;;;;;;6.68;73.31;100401.39;67659;1280;1017147;-66
2024/01/21 07:31:11;;;;;;;;;;;;;;;6.64;73.65;100406.15;67653;1280;1016233;-70
2024/01/21 07:34:14;;;;;;;;;;;;;;;6.64;73.83;100408.25;67650;1280;1016581;-70
2024/01/21 07:37:17;;;;;;;;;;;;;;;6.76;73.77;100410.63;67662;1280;1016378;-70
2024/01/21 07:40:19;;;;;;;;;;;;;;;6.86;72.78;100403.97;67635;1280;1016446;-60
2024/01/21 07:43:22;;;;;;;;;;;;;;;6.93;73.35;100404.20;67651;1280;1016415;-69
2024/01/21 07:46:25;;;;;;;;;;;;;;;7.11;72.53;100404.15;67664;1280;1016837;-63
2024/01/21 07:49:27;;;;;;;;;;;;;;;7.24;71.58;100402.48;67656;1280;1016482;-69
2024/01/21 07:52:30;;;;;;;;;;;;;;;7.30;71.15;100402.87;67618;1280;1016212;-69
2024/01/21 07:55:33;;;;;;;;;;;;;;;7.43;70.92;100403.80;67665;1280;1016954;-70
2024/01/21 07:58:35;;;;;;;;;;;;;;;7.54;69.76;100403.55;67647;1280;1016264;-60
2024/01/21 08:01:38;;;;;;;;;;;;;;;7.62;69.90;100401.79;67610;1280;1016801;-67
2024/01/21 08:04:41;;;;;;;;;;;;;;;7.82;69.48;100407.59;67672;1280;1017237;-70
2024/01/21 08:07:44;;;;;;;;;;;;;;;7.77;68.82;100409.79;67669;1280;1016432;-70
2024/01/21 08:10:47;;;;;;;;;;;;;;;7.92;69.34;100405.08;67599;1280;1016296;-71
2024/01/21 08:13:49;;;;;;;;;;;;;;;8.10;68.45;100405.16;67626;1280;1016092;-69
2024/01/21 08:16:52;;;;;;;;;;;;;;;8.12;68.42;100409.10;67622;1280;1015978;-70
2024/01/21 08:19:55;;;;;;;;;;;;;;;8.21;68.80;100413.56;67647;1280;1018120;-70
2024/01/21 08:22:57;;;;;;;;;;;;;;;8.31;68.28;100416.62;67686;1280;1016416;-70
2024/01/21 08:26:00;;;;;;;;;;;;;;;8.43;68.67;100416.67;67609;1280;1016497;-70
2024/01/21 08:29:03;;;;;;;;;;;;;;;8.61;68.01;100416.41;67657;1280;1016300;-70
2024/01/21 08:32:07;;;;;;;;;;;;;;;8.74;66.98;100419.17;67688;1280;1016476;-70
2024/01/21 08:35:10;;;;;;;;;;;;;;;8.78;66.53;100426.21;67651;1280;1016429;-60
2024/01/21 08:38:12;;;;;;;;;;;;;;;8.68;66.70;100432.23;67608;1280;1016733;-70
2024/01/21 08:41:15;;;;;;;;;;;;;;;8.64;66.23;100433.75;67631;1280;1016455;-70
2024/01/21 08:44:18;;;;;;;;;;;;;;;8.73;66.61;100431.94;67684;1280;1016064;-62
2024/01/21 08:47:21;;;;;;;;;;;;;;;8.81;66.64;100432.39;67651;1280;1016286;-66
2024/01/21 08:50:23;;;;;;;;;;;;;;;8.97;66.13;100439.82;67602;1280;1016749;-70
2024/01/21 08:53:26;;;;;;;;;;;;;;;9.10;65.59;100445.37;67672;1280;1016483;-69
2024/01/21 08:56:29;;;;;;;;;;;;;;;9.12;65.56;100447.58;67657;1280;1016396;-63
2024/01/21 08:59:31;;;;;;;;;;;;;;;9.24;65.10;100444.79;67609;1280;1016380;-60
2024/01/21 09:02:34;;;;;;;;;;;;;;;9.19;64.63;100445.64;67691;1280;1016436;-70
2024/01/21 09:05:37;;;;;;;;;;;;;;;9.29;64.78;100451.45;67647;1280;1016088;-71
2024/01/21 09:08:39;;;;;;;;;;;;;;;9.38;63.27;100450.28;67620;1280;1016299;-68
2024/01/21 09:11:42;;;;;;;;;;;;;;;9.51;63.17;100447.65;67650;1280;1016565;-70
2024/01/21 09:14:45;;;;;;;;;;;;;;;9.64;62.62;100442.02;67648;1280;1016280;-70
2024/01/21 09:17:47;;;;;;;;;;;;;;;9.74;62.04;100435.05;67645;1280;1016390;-70
2024/01/21 09:20:50;;;;;;;;;;;;;;;10.00;62.18;100437.52;67680;1280;1016389;-66
2024/01/21 09:23:53;;;;;;;;;;;;;;;10.30;62.08;100435.66;67645;1280;1016518;-70
2024/01/21 09:26:55;;;;;;;;;;;;;;;10.52;61.35;100437.75;67592;1280;1016460;-70
2024/01/21 09:29:58;;;;;;;;;;;;;;;10.45;62.15;100438.52;67669;1280;1016628;-70
2024/01/21 09:33:01;;;;;;;;;;;;;;;10.46;60.95;100442.85;67643;1280;1016890;-68
2024/01/21 09:36:04;;;;;;;;;;;;;;;10.44;61.74;100445.33;67594;1280;1016440;-70
2024/01/21 09:39:06;;;;;;;;;;;;;;;10.69;60.69;100441.00;67683;1280;1016493;-69
2024/01/21 09:42:09;;;;;;;;;;;;;;;10.64;60.98;100438.72;67623;1280;1017504;-70
2024/01/21 09:45:12;;;;;;;;;;;;;;;10.75;60.73;100440.95;67608;1280;1016213;-71
2024/01/21 09:48:15;;;;;;;;;;;;;;;10.84;59.60;100441.33;67663;1280;1016318;-70
2024/01/21 09:51:20;;;;;;;;;;;;;;;10.87;59.54;100434.73;67652;1280;1016315;-70
2024/01/21 09:54:23;;;;;;;;;;;;;;;10.89;60.13;100431.89;67660;1280;1016723;-70
2024/01/21 09:57:26;;;;;;;;;;;;;;;11.07;59.40;100428.73;67626;1280;1017235;-70
2024/01/21 10:00:29;;;;;;;;;;;;;;;11.05;59.40;100431.64;67658;1280;1016303;-70
2024/01/21 10:03:31;;;;;;;;;;;;;;;11.01;59.14;100433.35;67642;1280;1016444;-70
2024/01/21 10:06:34;;;;;;;;;;;;;;;11.03;59.17;100432.08;67617;1280;1016436;-71
2024/01/21 10:09:37;;;;;;;;;;;;;;;11.09;59.32;100427.45;67619;1280;1016440;-70
2024/01/21 10:12:39;;;;;;;;;;;;;;;11.20;59.36;100426.35;67667;1280;1017293;-70
2024/01/21 10:15:42;;;;;;;;;;;;;;;11.43;59.29;100425.30;67597;1280;1016371;-70
2024/01/21 10:18:45;;;;;;;;;;;;;;;11.56;58.22;100421.28;67672;1280;1016193;-70
2024/01/21 10:21:47;;;;;;;;;;;;;;;11.62;57.90;100418.08;67657;1280;1017129;-67
2024/01/21 10:24:50;;;;;;;;;;;;;;;11.74;57.53;100409.52;67623;1280;1016466;-69
2024/01/21 10:27:53;;;;;;;;;;;;;;;11.80;57.18;100407.01;67658;1280;1016434;-70
2024/01/21 10:30:55;;;;;;;;;;;;;;;11.64;57.16;100409.38;67626;1280;1016419;-71
2024/01/21 10:33:58;;;;;;;;;;;;;;;11.62;57.33;100405.10;67623;1280;1016488;-71
2024/01/21 10:37:01;;;;;;;;;;;;;;;11.73;56.74;100405.70;67635;1280;1016314;-67
2024/01/21 10:40:04;;;;;;;;;;;;;;;11.74;56.70;100407.61;67627;1280;1016459;-71
2024/01/21 10:43:06;;;;;;;;;;;;;;;11.78;56.49;100406.91;67582;1280;1016283;-71
2024/01/21 10:46:09;;;;;;;;;;;;;;;11.77;56.45;100408.50;67646;1280;1016209;-71
2024/01/21 10:49:12;;;;;;;;;;;;;;;11.70;56.12;100412.50;67609;1280;1016370;-66
2024/01/21 10:52:16;;;;;;;;;;;;;;;11.75;56.34;100411.39;67643;1280;1016350;-70
2024/01/21 10:55:20;;;;;;;;;;;;;;;11.79;55.19;100404.94;67641;1280;1016550;-70
2024/01/21 10:58:22;;;;;;;;;;;;;;;11.85;55.20;100399.60;67622;1280;1016415;-70
2024/01/21 11:01:25;;;;;;;;;;;;;;;11.87;55.16;100400.23;67657;1280;1016328;-69
2024/01/21 11:04:28;;;;;;;;;;;;;;;12.01;54.70;100395.64;67671;1280;1018053;-70
2024/01/21 11:07:30;;;;;;;;;;;;;;;12.02;54.84;100398.60;67590;1280;1019555;-67
2024/01/21 11:10:33;;;;;;;;;;;;;;;11.97;55.05;100399.49;67654;1280;1016534;-70
2024/01/21 11:13:36;;;;;;;;;;;;;;;11.99;54.44;100398.02;67657;1280;1016426;-69
2024/01/21 11:16:38;;;;;;;;;;;;;;;12.01;53.84;100394.77;67596;1280;1015949;-71
2024/01/21 11:19:41;;;;;;;;;;;;;;;11.93;54.26;100389.98;67667;1280;1016307;-67
2024/01/21 11:22:44;;;;;;;;;;;;;;;12.01;53.15;100379.88;67662;1280;1016482;-71
2024/01/21 11:25:47;;;;;;;;;;;;;;;12.05;53.09;100375.48;67615;1280;1016492;-70
2024/01/21 11:28:49;;;;;;;;;;;;;;;12.08;53.43;100374.86;67634;1280;1016501;-70
2024/01/21 11:31:52;;;;;;;;;;;;;;;12.27;53.38;100381.76;67667;1280;1016393;-67
2024/01/21 11:34:55;;;;;;;;;;;;;;;12.33;53.49;100381.33;67598;1280;1016459;-71
2024/01/21 11:37:58;;;;;;;;;;;;;;;12.50;53.11;100376.53;67664;1280;1016349;-69
2024/01/21 11:41:00;;;;;;;;;;;;;;;12.55;52.47;100375.80;67660;1280;1016304;-71
2024/01/21 11:44:03;;;;;;;;;;;;;;;12.67;52.53;100373.50;67599;1280;1016532;-60
2024/01/21 11:47:06;;;;;;;;;;;;;;;12.82;52.32;100369.70;67628;1280;1016483;-70
2024/01/21 11:50:08;;;;;;;;;;;;;;;12.90;51.63;100368.77;67662;1280;1016365;-70
2024/01/21 11:53:11;;;;;;;;;;;;;;;12.80;52.11;100372.56;67601;1280;1016288;-66
2024/01/21 11:56:14;;;;;;;;;;;;;;;12.88;51.74;100370.10;67645;1280;1016387;-71
2024/01/21 11:59:17;;;;;;;;;;;;;;;12.94;51.51;100363.84;67616;1280;1017173;-70
2024/01/21 12:02:20;;;;;;;;;;;;;;;13.01;51.87;100363.73;67640;1280;1016020;-70
2024/01/21 12:05:22;;;;;;;;;;;;;;;13.14;51.47;100358.00;67626;1280;1016325;-69
2024/01/21 12:08:25;;;;;;;;;;;;;;;13.17;51.55;100349.41;67600;1280;1016213;-71
2024/01/21 12:11:27;;;;;;;;;;;;;;;13.22;50.62;100340.77;67637;1280;1016334;-70
2024/01/21 12:14:30;;;;;;;;;;;;;;;13.25;50.83;100338.73;67627;1280;1016213;-71
2024/01/21 12:17:33;;;;;;;;;;;;;;;13.49;49.96;100330.57;67657;1280;1016547;-66
2024/01/21 12:20:35;;;;;;;;;;;;;;;13.46;50.02;100329.64;67615;1280;1016444;-71
2024/01/21 12:23:38;;;;;;;;;;;;;;;13.46;50.14;100328.23;67645;1280;1016501;-71
2024/01/21 12:26:41;;;;;;;;;;;;;;;13.59;49.51;100326.03;67598;1280;1017387;-71
2024/01/21 12:29:44;;;;;;;;;;;;;;;13.75;49.90;100326.09;67607;1280;1016408;-71
2024/01/21 12:32:46;;;;;;;;;;;;;;;13.89;49.80;100318.51;67623;1280;1016892;-71
2024/01/21 12:35:49;;;;;;;;;;;;;;;14.07;49.13;100305.47;67600;1280;1016277;-71
2024/01/21 12:38:52;;;;;;;;;;;;;;;13.93;48.56;100299.70;67582;1280;1016383;-67
2024/01/21 12:41:54;;;;;;;;;;;;;;;13.49;48.06;100301.17;67666;1280;1016039;-71
2024/01/21 12:44:59;;;;;;;;;;;;;;;13.17;48.56;100295.70;67649;1280;1016193;-71
2024/01/21 12:48:03;;;;;;;;;;;;;;;12.93;48.53;100294.39;67611;1280;1016235;-65
2024/01/21 12:51:06;;;;;;;;;;;;;;;12.81;46.75;100295.44;67635;1280;1016395;-66
2024/01/21 12:54:09;;;;;;;;;;;;;;;12.64;46.83;100296.27;67599;1280;1019436;-71
2024/01/21 12:57:12;;;;;;;;;;;;;;;12.57;46.40;100285.52;67618;1279;1016552;-65
2024/01/21 13:00:15;;;;;;;;;;;;;;;12.43;46.60;100284.77;67621;1280;1016453;-62
2024/01/21 13:03:17;;;;;;;;;;;;;;;12.29;46.72;100285.17;67635;1280;1016294;-71
2024/01/21 13:06:20;;;;;;;;;;;;;;;12.22;46.41;100288.15;67612;1280;1016117;-71
2024/01/21 13:09:23;;;;;;;;;;;;;;;12.07;46.90;100290.38;67663;1280;1016439;-70
2024/01/21 13:12:27;;;;;;;;;;;;;;;12.23;47.17;100299.16;67587;1280;1016361;-71
2024/01/21 13:15:30;;;;;;;;;;;;;;;12.63;46.70;100298.77;67585;1280;1016966;-71
2024/01/21 13:18:32;;;;;;;;;;;;;;;13.05;46.57;100291.55;67592;1280;1016469;-69
2024/01/21 13:21:35;;;;;;;;;;;;;;;13.44;45.39;100286.15;67628;1280;1017723;-71
2024/01/21 13:24:38;;;;;;;;;;;;;;;13.40;45.14;100280.77;67628;1280;1016675;-71
2024/01/21 13:27:43;;;;;;;;;;;;;;;13.55;45.49;100275.95;67595;1280;1016460;-71
2024/01/21 13:30:46;;;;;;;;;;;;;;;13.61;45.59;100282.00;67624;1280;1016099;-70
2024/01/21 13:33:49;;;;;;;;;;;;;;;13.63;45.14;100278.55;67614;1280;1015963;-71
2024/01/21 13:36:52;;;;;;;;;;;;;;;13.64;44.95;100281.15;67641;1280;1016670;-70
2024/01/21 13:39:54;;;;;;;;;;;;;;;13.45;44.97;100278.04;67614;1280;1016582;-70
2024/01/21 13:42:57;;;;;;;;;;;;;;;13.21;45.10;100283.71;67588;1280;1016427;-71
2024/01/21 13:46:00;;;;;;;;;;;;;;;13.01;45.39;100287.16;67643;1280;1018753;-71
2024/01/21 13:49:03;;;;;;;;;;;;;;;12.84;45.63;100286.55;67610;1280;1016437;-71
2024/01/21 13:52:13;;;;;;;;;;;;;;;12.49;46.03;100284.13;67616;1280;1016445;-71
2024/01/21 13:55:17;;;;;;;;;;;;;;;12.37;46.06;100279.73;67600;1280;1016419;-71
2024/01/21 13:58:20;;;;;;;;;;;;;;;12.17;46.48;100282.77;67639;1280;1016433;-65
2024/01/21 14:01:22;;;;;;;;;;;;;;;11.97;46.57;100279.41;67645;1280;1016345;-71
2024/01/21 14:04:25;;;;;;;;;;;;;;;11.85;46.68;100275.38;67583;1280;1016595;-67
2024/01/21 14:07:29;;;;;;;;;;;;;;;11.73;46.71;100274.78;67610;1279;1016435;-71
2024/01/21 14:10:31;;;;;;;;;;;;;;;11.43;46.83;100269.23;67642;1280;1015952;-72
2024/01/21 14:13:34;;;;;;;;;;;;;;;11.05;47.09;100267.08;67616;1280;1016194;-62
2024/01/21 14:16:37;;;;;;;;;;;;;;;10.69;47.51;100270.42;67598;1280;1016482;-70
2024/01/21 14:19:41;;;;;;;;;;;;;;;10.30;47.67;100275.16;67606;1280;1015930;-70
2024/01/21 14:22:44;;;;;;;;;;;;;;;9.85;48.52;100272.93;67623;1280;1016294;-69
2024/01/21 14:25:47;;;;;;;;;;;;;;;9.74;48.06;100271.90;67570;1280;1016274;-71
2024/01/21 14:28:50;;;;;;;;;;;;;;;9.49;48.24;100273.09;67644;1280;1016461;-72
2024/01/21 14:31:53;;;;;;;;;;;;;;;9.49;48.11;100279.05;67593;1280;1016309;-71
2024/01/21 14:34:55;;;;;;;;;;;;;;;9.34;48.03;100272.38;67592;1280;1016770;-71
2024/01/21 14:37:58;;;;;;;;;;;;;;;9.23;47.98;100272.71;67567;1280;1016339;-71
2024/01/21 14:41:01;;;;;;;;;;;;;;;9.09;48.08;100279.44;67576;1280;1016184;-71
2024/01/21 14:44:03;;;;;;;;;;;;;;;8.84;48.53;100279.19;67587;1280;1016193;-69
2024/01/21 14:47:06;;;;;;;;;;;;;;;8.70;48.61;100281.33;67636;1280;1016175;-71
2024/01/21 14:50:09;;;;;;;;;;;;;;;8.47;49.11;100275.04;67611;1280;1016489;-70
2024/01/21 14:53:12;;;;;;;;;;;;;;;8.40;49.20;100278.34;67535;1280;1016080;-72
2024/01/21 14:56:14;;;;;;;;;;;;;;;8.24;49.30;100283.33;67507;1280;1016457;-71
2024/01/21 14:59:17;;;;;;;;;;;;;;;8.04;49.61;100285.61;67523;1280;1019630;-71
2024/01/21 15:02:20;;;;;;;;;;;;;;;7.94;49.80;100283.62;67559;1280;1016438;-61
2024/01/21 15:05:23;;;;;;;;;;;;;;;7.82;50.15;100279.77;67670;1280;1016472;-71